createdAt,value
2023-05-21T00:00:22.606Z,99501.25
2023-05-21T00:02:49.425Z,99497.78
2023-05-21T00:05:18.364Z,99498.63
2023-05-21T00:07:45.970Z,99499.47
2023-05-21T00:10:14.973Z,99505.41
2023-05-21T00:12:41.981Z,99482.16
2023-05-21T00:15:09.708Z,99481.31
2023-05-21T00:17:37.136Z,99483.94
2023-05-21T00:20:08.798Z,99489.13
2023-05-21T00:22:36.886Z,99490.88
2023-05-21T00:25:04.262Z,99487.38
2023-05-21T00:27:30.899Z,99490.81
2023-05-21T00:29:57.819Z,99475.34
2023-05-21T00:32:25.245Z,99472.78
2023-05-21T00:34:51.902Z,99471.84
2023-05-21T00:37:19.097Z,99460.56
2023-05-21T00:39:45.819Z,99451.94
2023-05-21T00:42:12.483Z,99444.22
2023-05-21T00:44:39.394Z,99437.31
2023-05-21T00:47:06.606Z,99439.91
2023-05-21T00:49:33.270Z,99431.38
2023-05-21T00:52:01.733Z,99441.75
2023-05-21T00:54:29.109Z,99440.84
2023-05-21T00:56:56.805Z,99440.84
2023-05-21T00:59:24.179Z,99443.41
2023-05-21T01:01:56.387Z,99445.16
2023-05-21T01:04:26.850Z,99437.44
2023-05-21T01:06:53.597Z,99441.72
2023-05-21T01:09:20.444Z,99437.38
2023-05-21T01:11:50.596Z,99428.81
2023-05-21T01:14:18.907Z,99422.78
2023-05-21T01:16:49.647Z,99423.66
2023-05-21T01:19:19.575Z,99415.88
2023-05-21T01:21:51.093Z,99418.41
2023-05-21T01:24:18.526Z,99421.00
2023-05-21T01:26:46.768Z,99416.69
2023-05-21T01:29:14.567Z,99410.69
2023-05-21T01:32:16.669Z,99416.72
2023-05-21T01:34:56.521Z,99427.91
2023-05-21T01:37:42.797Z,99427.03
2023-05-21T01:40:22.098Z,99420.97
2023-05-21T01:42:48.998Z,99408.91
2023-05-21T01:45:16.753Z,99402.88
2023-05-21T01:47:47.722Z,99407.22
2023-05-21T01:50:15.449Z,99411.47
2023-05-21T01:52:52.478Z,99413.97
2023-05-21T01:55:24.736Z,99401.06
2023-05-21T01:57:53.501Z,99398.56
2023-05-21T02:00:24.998Z,99401.97
2023-05-21T02:02:52.060Z,99394.19
2023-05-21T02:05:18.764Z,99395.81
2023-05-21T02:07:46.186Z,99389.88
2023-05-21T02:10:13.236Z,99391.63
2023-05-21T02:12:39.837Z,99396.81
2023-05-21T02:15:07.023Z,99391.53
2023-05-21T02:17:38.746Z,99388.19
2023-05-21T02:20:12.086Z,99389.03
2023-05-21T02:22:40.654Z,99398.56
2023-05-21T02:25:08.993Z,99398.50
2023-05-21T02:27:37.762Z,99400.09
2023-05-21T02:30:06.954Z,99399.09
2023-05-21T02:32:34.158Z,99382.75
2023-05-21T02:35:03.600Z,99380.16
2023-05-21T02:37:34.622Z,99384.47
2023-05-21T02:40:07.905Z,99388.66
2023-05-21T02:42:36.636Z,99384.53
2023-05-21T02:45:03.641Z,99388.75
2023-05-21T02:47:30.797Z,99389.59
2023-05-21T02:49:59.895Z,99390.38
2023-05-21T02:52:26.456Z,99383.53
2023-05-21T02:54:53.084Z,99394.81
2023-05-21T02:57:19.760Z,99392.19
2023-05-21T02:59:46.334Z,99393.97
2023-05-21T03:02:12.955Z,99402.66
2023-05-21T03:04:46.102Z,99405.19
2023-05-21T03:07:18.091Z,99400.88
2023-05-21T03:09:44.720Z,99395.63
2023-05-21T03:12:11.778Z,99393.97
2023-05-21T03:14:38.696Z,99402.72
2023-05-21T03:17:06.328Z,99413.91
2023-05-21T03:19:35.904Z,99413.91
2023-05-21T03:22:03.972Z,99416.50
2023-05-21T03:24:30.722Z,99419.91
2023-05-21T03:26:57.567Z,99437.09
2023-05-21T03:29:24.114Z,99420.75
2023-05-21T03:31:54.037Z,99426.75
2023-05-21T03:34:21.575Z,99421.50
2023-05-21T03:36:48.399Z,99416.38
2023-05-21T03:39:15.648Z,99424.09
2023-05-21T03:41:42.841Z,99433.66
2023-05-21T03:44:09.667Z,99421.47
2023-05-21T03:46:36.333Z,99418.88
2023-05-21T03:49:03.035Z,99419.81
2023-05-21T03:51:31.748Z,99413.78
2023-05-21T03:53:59.369Z,99408.53
2023-05-21T03:56:26.303Z,99395.66
2023-05-21T03:58:53.048Z,99385.22
2023-05-21T04:01:20.241Z,99377.56
2023-05-21T04:03:47.308Z,99381.00
2023-05-21T04:06:14.093Z,99375.78
2023-05-21T04:08:40.657Z,99364.47
2023-05-21T04:11:07.571Z,99361.13
2023-05-21T04:13:34.204Z,99369.75
2023-05-21T04:16:01.321Z,99373.13
2023-05-21T04:18:28.219Z,99369.59
2023-05-21T04:20:54.921Z,99354.19
2023-05-21T04:23:23.600Z,99360.09
2023-05-21T04:25:51.036Z,99354.19
2023-05-21T04:28:20.190Z,99356.69
2023-05-21T04:30:47.925Z,99361.91
2023-05-21T04:33:18.455Z,99373.19
2023-05-21T04:35:47.450Z,99379.88
2023-05-21T04:38:14.192Z,99377.34
2023-05-21T04:40:40.891Z,99384.19
2023-05-21T04:43:08.885Z,99369.56
2023-05-21T04:45:36.113Z,99364.31
2023-05-21T04:48:03.068Z,99359.16
2023-05-21T04:50:33.796Z,99351.53
2023-05-21T04:53:00.656Z,99345.38
2023-05-21T04:55:27.586Z,99325.72
2023-05-21T04:57:54.541Z,99331.78
2023-05-21T05:00:21.709Z,99332.53
2023-05-21T05:02:48.541Z,99319.72
2023-05-21T05:05:15.954Z,99318.81
2023-05-21T05:07:42.550Z,99306.00
2023-05-21T05:10:09.589Z,99291.47
2023-05-21T05:12:36.168Z,99298.34
2023-05-21T05:15:02.807Z,99298.31
2023-05-21T05:17:29.563Z,99303.47
2023-05-21T05:19:56.341Z,99295.84
2023-05-21T05:22:22.898Z,99306.03
2023-05-21T05:24:49.490Z,99298.41
2023-05-21T05:27:16.058Z,99303.56
2023-05-21T05:29:42.689Z,99291.63
2023-05-21T05:32:09.276Z,99301.78
2023-05-21T05:34:35.922Z,99294.03
2023-05-21T05:37:03.020Z,99288.91
2023-05-21T05:39:29.722Z,99273.47
2023-05-21T05:41:56.502Z,99264.97
2023-05-21T05:44:23.103Z,99282.06
2023-05-21T05:46:49.677Z,99288.88
2023-05-21T05:49:16.288Z,99275.09
2023-05-21T05:51:43.236Z,99271.81
2023-05-21T05:54:09.843Z,99266.63
2023-05-21T05:56:36.432Z,99291.44
2023-05-21T05:59:02.992Z,99278.53
2023-05-21T06:01:29.598Z,99263.94
2023-05-21T06:03:57.446Z,99273.31
2023-05-21T06:06:24.528Z,99243.34
2023-05-21T06:08:51.288Z,99242.47
2023-05-21T06:11:19.198Z,99244.16
2023-05-21T06:13:46.216Z,99224.53
2023-05-21T06:16:13.285Z,99229.69
2023-05-21T06:18:39.912Z,99239.00
2023-05-21T06:21:06.569Z,99225.34
2023-05-21T06:23:33.222Z,99209.16
2023-05-21T06:25:59.790Z,99230.50
2023-05-21T06:28:26.339Z,99221.19
2023-05-21T06:30:53.122Z,99243.34
2023-05-21T06:33:19.809Z,99230.69
2023-05-21T06:35:46.575Z,99257.97
2023-05-21T06:38:13.145Z,99246.94
2023-05-21T06:40:39.772Z,99244.28
2023-05-21T06:43:06.388Z,99250.38
2023-05-21T06:45:33.090Z,99252.00
2023-05-21T06:47:59.904Z,99229.72
2023-05-21T06:50:26.566Z,99239.34
2023-05-21T06:52:53.153Z,99239.47
2023-05-21T06:55:19.772Z,99255.75
2023-05-21T06:57:46.425Z,99276.13
2023-05-21T07:00:14.086Z,99268.41
2023-05-21T07:02:40.773Z,99256.47
2023-05-21T07:05:07.618Z,99260.84
2023-05-21T07:07:34.986Z,99269.28
2023-05-21T07:10:01.631Z,99244.56
2023-05-21T07:12:28.437Z,99253.16
2023-05-21T07:14:55.351Z,99267.66
2023-05-21T07:17:22.763Z,99262.53
2023-05-21T07:19:49.354Z,99265.13
2023-05-21T07:22:15.952Z,99261.78
2023-05-21T07:24:42.541Z,99247.34
2023-05-21T07:27:24.264Z,99267.16
2023-05-21T07:29:52.138Z,99298.13
2023-05-21T07:32:19.632Z,99312.69
2023-05-21T07:34:47.406Z,99322.88
2023-05-21T07:37:14.524Z,99327.06
2023-05-21T07:39:41.303Z,99309.78
2023-05-21T07:42:07.910Z,99287.69
2023-05-21T07:44:34.511Z,99295.47
2023-05-21T07:47:01.170Z,99321.06
2023-05-21T07:49:27.755Z,99302.25
2023-05-21T07:51:54.341Z,99307.47
2023-05-21T07:54:21.043Z,99325.44
2023-05-21T07:56:47.643Z,99313.31
2023-05-21T07:59:17.147Z,99322.88
2023-05-21T08:01:44.281Z,99323.03
2023-05-21T08:04:11.210Z,99336.88
2023-05-21T08:06:38.038Z,99360.94
2023-05-21T08:09:06.222Z,99361.69
2023-05-21T08:11:33.203Z,99353.97
2023-05-21T08:14:00.305Z,99351.47
2023-05-21T08:16:27.039Z,99365.97
2023-05-21T08:18:53.746Z,99368.63
2023-05-21T08:21:20.949Z,99376.34
2023-05-21T08:23:47.633Z,99371.28
2023-05-21T08:26:16.564Z,99390.91
2023-05-21T08:28:43.461Z,99379.81
2023-05-21T08:31:10.282Z,99398.03
2023-05-21T08:33:38.331Z,99413.50
2023-05-21T08:36:06.837Z,99428.19
2023-05-21T08:38:34.505Z,99448.00
2023-05-21T08:41:01.290Z,99454.06
2023-05-21T08:43:28.502Z,99472.94
2023-05-21T08:45:59.189Z,99473.16
2023-05-21T08:48:26.082Z,99480.94
2023-05-21T08:50:54.187Z,99501.66
2023-05-21T08:53:28.285Z,99517.97
2023-05-21T08:55:56.571Z,99529.00
2023-05-21T08:58:24.667Z,99521.44
2023-05-21T09:00:51.487Z,99536.13
2023-05-21T09:03:18.325Z,99551.44
2023-05-21T09:05:46.003Z,99526.56
2023-05-21T09:08:19.503Z,99530.84
2023-05-21T09:10:50.978Z,99548.03
2023-05-21T09:13:18.671Z,99542.03
2023-05-21T09:15:46.923Z,99543.75
2023-05-21T09:18:14.592Z,99552.44
2023-05-21T09:20:41.249Z,99564.53
2023-05-21T09:23:16.767Z,99578.25
2023-05-21T09:25:48.246Z,99563.66
2023-05-21T09:28:17.149Z,99568.03
2023-05-21T09:30:48.437Z,99563.66
2023-05-21T09:33:29.486Z,99573.16
2023-05-21T09:35:56.553Z,99574.88
2023-05-21T09:38:24.010Z,99571.41
2023-05-21T09:40:50.648Z,99579.16
2023-05-21T09:43:17.454Z,99582.59
2023-05-21T09:45:54.639Z,99584.41
2023-05-21T09:48:37.849Z,99588.72
2023-05-21T09:51:13.073Z,99583.50
2023-05-21T09:53:49.530Z,99590.38
2023-05-21T09:56:18.884Z,99591.31
2023-05-21T09:58:45.738Z,99589.53
2023-05-21T10:01:12.512Z,99592.00
2023-05-21T10:03:40.683Z,99569.66
2023-05-21T10:06:12.270Z,99584.38
2023-05-21T10:08:44.977Z,99582.63
2023-05-21T10:11:12.231Z,99586.03
2023-05-21T10:13:44.732Z,99587.72
2023-05-21T10:16:12.832Z,99573.03
2023-05-21T10:18:42.274Z,99567.06
2023-05-21T10:21:09.150Z,99566.06
2023-05-21T10:23:37.817Z,99562.69
2023-05-21T10:26:07.204Z,99559.28
2023-05-21T10:28:34.126Z,99556.72
2023-05-21T10:31:01.661Z,99562.69
2023-05-21T10:33:29.804Z,99574.72
2023-05-21T10:35:58.730Z,99579.16
2023-05-21T10:38:25.564Z,99575.63
2023-05-21T10:40:53.632Z,99568.81
2023-05-21T10:43:44.264Z,99580.78
2023-05-21T10:46:16.928Z,99575.63
2023-05-21T10:49:17.868Z,99573.13
2023-05-21T10:52:06.459Z,99587.78
2023-05-21T10:54:57.516Z,99587.84
2023-05-21T10:57:42.578Z,99586.03
2023-05-21T11:00:12.659Z,99576.56
2023-05-21T11:02:40.151Z,99560.97
2023-05-21T11:05:07.491Z,99563.66
2023-05-21T11:08:02.434Z,99559.38
2023-05-21T11:10:39.591Z,99572.22
2023-05-21T11:13:25.345Z,99572.22
2023-05-21T11:15:57.895Z,99547.22
2023-05-21T11:18:47.437Z,99532.66
2023-05-21T11:21:18.974Z,99523.19
2023-05-21T11:23:52.245Z,99521.53
2023-05-21T11:26:39.446Z,99528.41
2023-05-21T11:29:06.299Z,99530.13
2023-05-21T11:31:38.786Z,99522.41
2023-05-21T11:34:09.026Z,99528.47
2023-05-21T11:36:38.114Z,99541.41
2023-05-21T11:39:17.263Z,99580.22
2023-05-21T11:42:01.588Z,99581.78
2023-05-21T11:44:43.440Z,99578.38
2023-05-21T11:47:12.271Z,99558.53
2023-05-21T11:49:39.446Z,99567.19
2023-05-21T11:52:07.699Z,99559.44
2023-05-21T11:54:40.332Z,99556.00
2023-05-21T11:57:08.267Z,99553.44
2023-05-21T11:59:36.379Z,99569.00
2023-05-21T12:02:04.887Z,99572.41
2023-05-21T12:04:39.007Z,99585.31
2023-05-21T12:07:09.117Z,99581.06
2023-05-21T12:09:43.989Z,99584.50
2023-05-21T12:12:16.143Z,99592.28
2023-05-21T12:14:47.991Z,99579.34
2023-05-21T12:17:31.834Z,99582.78
2023-05-21T12:19:59.168Z,99578.47
2023-05-21T12:22:28.021Z,99585.41
2023-05-21T12:24:54.726Z,99581.91
2023-05-21T12:27:22.541Z,99584.53
2023-05-21T12:29:51.828Z,99591.44
2023-05-21T12:32:20.967Z,99581.03
2023-05-21T12:34:50.084Z,99556.94
2023-05-21T12:37:22.109Z,99550.06
2023-05-21T12:39:51.026Z,99563.78
2023-05-21T12:42:26.226Z,99546.59
2023-05-21T12:44:53.682Z,99519.00
2023-05-21T12:47:24.093Z,99515.56
2023-05-21T12:49:53.107Z,99507.78
2023-05-21T12:52:21.480Z,99511.22
2023-05-21T12:54:52.689Z,99537.97
2023-05-21T12:57:21.340Z,99555.22
2023-05-21T12:59:52.928Z,99556.06
2023-05-21T13:02:31.550Z,99539.72
2023-05-21T13:04:59.648Z,99531.91
2023-05-21T13:07:27.583Z,99553.44
2023-05-21T13:09:55.227Z,99562.94
2023-05-21T13:12:27.064Z,99569.00
2023-05-21T13:14:58.601Z,99573.31
2023-05-21T13:17:26.225Z,99573.31
2023-05-21T13:20:20.107Z,99581.03
2023-05-21T13:22:52.023Z,99570.69
2023-05-21T13:25:21.603Z,99568.09
2023-05-21T13:27:49.741Z,99574.88
2023-05-21T13:30:16.694Z,99577.56
2023-05-21T13:32:44.170Z,99564.69
2023-05-21T13:35:12.191Z,99551.75
2023-05-21T13:37:40.808Z,99549.13
2023-05-21T13:40:12.089Z,99543.91
2023-05-21T13:42:39.119Z,99545.66
2023-05-21T13:45:07.704Z,99541.38
2023-05-21T13:47:37.488Z,99559.34
2023-05-21T13:50:06.470Z,99563.63
2023-05-21T13:52:33.138Z,99564.50
2023-05-21T13:54:59.829Z,99579.16
2023-05-21T13:57:27.105Z,99569.75
2023-05-21T13:59:53.958Z,99567.91
2023-05-21T14:02:20.789Z,99572.94
2023-05-21T14:04:47.464Z,99574.69
2023-05-21T14:07:14.167Z,99580.81
2023-05-21T14:09:42.396Z,99579.84
2023-05-21T14:12:09.357Z,99572.91
2023-05-21T14:14:36.237Z,99573.81
2023-05-21T14:17:02.846Z,99576.16
2023-05-21T14:19:29.613Z,99560.66
2023-05-21T14:21:56.785Z,99573.91
2023-05-21T14:24:23.443Z,99566.91
2023-05-21T14:26:50.021Z,99569.44
2023-05-21T14:29:16.608Z,99562.13
2023-05-21T14:31:43.363Z,99570.63
2023-05-21T14:34:10.207Z,99566.50
2023-05-21T14:36:36.825Z,99578.81
2023-05-21T14:39:03.869Z,99573.44
2023-05-21T14:41:30.899Z,99555.25
2023-05-21T14:43:57.510Z,99562.78
2023-05-21T14:46:24.295Z,99561.84
2023-05-21T14:48:50.921Z,99562.03
2023-05-21T14:51:17.611Z,99566.50
2023-05-21T14:53:44.314Z,99567.00
2023-05-21T14:56:10.943Z,99556.47
2023-05-21T14:58:37.533Z,99557.28
2023-05-21T15:01:04.355Z,99558.84
2023-05-21T15:03:31.119Z,99554.44
2023-05-21T15:05:58.733Z,99546.66
2023-05-21T15:08:25.519Z,99550.75
2023-05-21T15:10:52.204Z,99541.75
2023-05-21T15:13:19.005Z,99542.59
2023-05-21T15:15:46.141Z,99538.88
2023-05-21T15:18:13.119Z,99530.50
2023-05-21T15:20:39.755Z,99525.50
2023-05-21T15:23:16.970Z,99525.47
2023-05-21T15:25:45.716Z,99528.56
2023-05-21T15:28:12.811Z,99531.47
2023-05-21T15:30:39.905Z,99530.59
2023-05-21T15:33:06.635Z,99535.56
2023-05-21T15:35:33.481Z,99531.72
2023-05-21T15:38:00.334Z,99530.22
2023-05-21T15:40:27.382Z,99533.34
2023-05-21T15:42:54.490Z,99522.25
2023-05-21T15:45:21.204Z,99527.31
2023-05-21T15:47:48.042Z,99533.22
2023-05-21T15:50:14.780Z,99535.50
2023-05-21T15:52:42.643Z,99521.63
2023-05-21T15:55:09.608Z,99529.63
2023-05-21T15:57:36.230Z,99518.19
2023-05-21T16:00:03.832Z,99521.22
2023-05-21T16:02:30.551Z,99521.63
2023-05-21T16:04:57.282Z,99518.19
2023-05-21T16:07:24.565Z,99523.28
2023-05-21T16:09:51.447Z,99524.28
2023-05-21T16:12:18.230Z,99525.81
2023-05-21T16:14:44.881Z,99523.41
2023-05-21T16:17:11.638Z,99519.00
2023-05-21T16:19:38.993Z,99520.09
2023-05-21T16:22:05.924Z,99526.97
2023-05-21T16:24:33.074Z,99521.84
2023-05-21T16:26:59.847Z,99528.34
2023-05-21T16:29:26.613Z,99527.16
2023-05-21T16:31:53.300Z,99515.88
2023-05-21T16:34:19.928Z,99514.88
2023-05-21T16:36:46.811Z,99514.81
2023-05-21T16:39:13.403Z,99515.38
2023-05-21T16:41:40.026Z,99512.13
2023-05-21T16:44:06.635Z,99515.81
2023-05-21T16:46:33.291Z,99510.09
2023-05-21T16:49:01.444Z,99510.50
2023-05-21T16:51:28.015Z,99508.66
2023-05-21T16:53:54.620Z,99504.38
2023-05-21T16:56:21.856Z,99513.78
2023-05-21T16:58:48.571Z,99498.97
2023-05-21T17:01:15.281Z,99504.94
2023-05-21T17:03:43.346Z,99504.09
2023-05-21T17:06:10.207Z,99501.69
2023-05-21T17:08:36.817Z,99498.41
2023-05-21T17:11:03.584Z,99499.19
2023-05-21T17:13:30.137Z,99502.66
2023-05-21T17:15:56.782Z,99503.63
2023-05-21T17:18:23.409Z,99501.94
2023-05-21T17:20:50.167Z,99497.78
2023-05-21T17:23:17.020Z,99503.03
2023-05-21T17:25:43.707Z,99508.31
2023-05-21T17:28:11.283Z,99505.63
2023-05-21T17:30:38.052Z,99505.84
2023-05-21T17:33:04.774Z,99510.09
2023-05-21T17:35:31.356Z,99509.25
2023-05-21T17:37:58.073Z,99507.59
2023-05-21T17:40:25.128Z,99508.41
2023-05-21T17:42:52.579Z,99511.13
2023-05-21T17:45:19.622Z,99505.09
2023-05-21T17:47:46.408Z,99509.53
2023-05-21T17:50:13.115Z,99514.56
2023-05-21T17:52:39.884Z,99515.53
2023-05-21T17:55:07.903Z,99509.50
2023-05-21T17:57:36.070Z,99508.69
2023-05-21T18:00:04.971Z,99517.38
2023-05-21T18:02:31.873Z,99519.06
2023-05-21T18:04:58.607Z,99515.69
2023-05-21T18:07:25.715Z,99515.66
2023-05-21T18:09:52.401Z,99517.41
2023-05-21T18:12:19.595Z,99518.31
2023-05-21T18:14:46.267Z,99521.75
2023-05-21T18:17:13.090Z,99521.72
2023-05-21T18:19:39.760Z,99526.00
2023-05-21T18:22:06.636Z,99523.50
2023-05-21T18:24:33.315Z,99526.06
2023-05-21T18:27:00.026Z,99531.38
2023-05-21T18:29:26.684Z,99537.47
2023-05-21T18:31:53.790Z,99526.19
2023-05-21T18:34:20.833Z,99531.38
2023-05-21T18:36:48.300Z,99524.50
2023-05-21T18:39:14.993Z,99531.34
2023-05-21T18:41:41.919Z,99544.34
2023-05-21T18:44:08.853Z,99545.19
2023-05-21T18:46:36.163Z,99544.38
2023-05-21T18:49:02.896Z,99542.69
2023-05-21T18:51:29.561Z,99544.44
2023-05-21T18:53:56.098Z,99548.81
2023-05-21T18:56:23.362Z,99548.81
2023-05-21T18:58:49.976Z,99544.50
2023-05-21T19:01:17.848Z,99541.91
2023-05-21T19:03:44.505Z,99537.63
2023-05-21T19:06:11.202Z,99541.06
2023-05-21T19:08:37.845Z,99540.22
2023-05-21T19:11:04.502Z,99547.19
2023-05-21T19:13:31.095Z,99528.16
2023-05-21T19:15:58.713Z,99537.69
2023-05-21T19:18:30.403Z,99531.69
2023-05-21T19:20:57.482Z,99536.88
2023-05-21T19:23:24.898Z,99539.47
2023-05-21T19:25:51.604Z,99544.69
2023-05-21T19:28:18.918Z,99539.50
2023-05-21T19:30:46.394Z,99533.50
2023-05-21T19:33:13.625Z,99541.28
2023-05-21T19:35:41.998Z,99524.03
2023-05-21T19:38:11.751Z,99527.47
2023-05-21T19:40:38.685Z,99539.56
2023-05-21T19:43:05.694Z,99543.00
2023-05-21T19:45:32.415Z,99541.28
2023-05-21T19:47:59.906Z,99537.00
2023-05-21T19:50:28.666Z,99538.72
2023-05-21T19:52:58.777Z,99531.84
2023-05-21T19:55:25.769Z,99526.66
2023-05-21T19:57:52.384Z,99530.94
2023-05-21T20:00:19.337Z,99529.25
2023-05-21T20:02:46.459Z,99534.44
2023-05-21T20:05:13.521Z,99534.44
2023-05-21T20:07:40.164Z,99520.63
2023-05-21T20:10:08.686Z,99514.59
2023-05-21T20:12:35.700Z,99502.53
2023-05-21T20:15:03.453Z,99509.41
2023-05-21T20:17:30.631Z,99503.38
2023-05-21T20:19:59.093Z,99508.56
2023-05-21T20:22:26.289Z,99507.69
2023-05-21T20:24:53.043Z,99499.09
2023-05-21T20:27:20.069Z,99493.03
2023-05-21T20:29:46.865Z,99496.50
2023-05-21T20:32:13.553Z,99494.78
2023-05-21T20:34:50.729Z,99483.56
2023-05-21T20:37:29.202Z,99481.00
2023-05-21T20:39:57.993Z,99477.50
2023-05-21T20:42:28.756Z,99472.38
2023-05-21T20:44:59.208Z,99461.13
2023-05-21T20:47:30.136Z,99455.09
2023-05-21T20:49:59.537Z,99455.13
2023-05-21T20:52:27.111Z,99452.56
2023-05-21T20:54:55.025Z,99446.53
2023-05-21T20:57:26.223Z,99447.38
2023-05-21T20:59:53.503Z,99433.56
2023-05-21T21:02:21.245Z,99427.56
2023-05-21T21:04:49.188Z,99433.59
2023-05-21T21:07:19.694Z,99426.72
2023-05-21T21:09:47.355Z,99418.94
2023-05-21T21:12:25.272Z,99421.53
2023-05-21T21:14:52.914Z,99415.53
2023-05-21T21:17:19.694Z,99412.94
2023-05-21T21:19:46.361Z,99416.38
2023-05-21T21:22:13.145Z,99407.75
2023-05-21T21:24:39.833Z,99414.66
2023-05-21T21:27:06.794Z,99412.06
2023-05-21T21:29:33.421Z,99406.88
2023-05-21T21:31:59.998Z,99403.47
2023-05-21T21:34:27.378Z,99398.28
2023-05-21T21:36:54.498Z,99392.28
2023-05-21T21:39:21.198Z,99388.78
2023-05-21T21:41:47.809Z,99385.38
2023-05-21T21:44:14.451Z,99381.06
2023-05-21T21:46:41.056Z,99375.03
2023-05-21T21:49:07.706Z,99375.03
2023-05-21T21:51:34.935Z,99367.28
2023-05-21T21:54:01.603Z,99367.28
2023-05-21T21:56:30.078Z,99358.66
2023-05-21T21:58:57.163Z,99361.25
2023-05-21T22:01:23.961Z,99362.09
2023-05-21T22:03:50.647Z,99356.94
2023-05-21T22:06:17.246Z,99359.53
2023-05-21T22:08:43.841Z,99359.53
2023-05-21T22:11:10.808Z,99357.78
2023-05-21T22:13:37.754Z,99356.06
2023-05-21T22:16:05.443Z,99357.78
2023-05-21T22:18:39.522Z,99367.28
2023-05-21T22:21:09.688Z,99370.72
2023-05-21T22:23:37.519Z,99363.81
2023-05-21T22:26:04.377Z,99368.13
2023-05-21T22:28:31.012Z,99376.75
2023-05-21T22:30:59.367Z,99375.88
2023-05-21T22:33:26.819Z,99374.19
2023-05-21T22:35:54.274Z,99370.72
2023-05-21T22:38:21.067Z,99371.59
2023-05-21T22:40:47.688Z,99380.19
2023-05-21T22:43:14.321Z,99374.19
2023-05-21T22:45:40.973Z,99378.50
2023-05-21T22:48:09.415Z,99385.38
2023-05-21T22:50:36.607Z,99381.06
2023-05-21T22:53:03.497Z,99381.94
2023-05-21T22:55:30.734Z,99379.34
2023-05-21T22:57:57.300Z,99379.38
2023-05-21T23:00:24.034Z,99369.88
2023-05-21T23:02:53.833Z,99368.16
2023-05-21T23:05:21.099Z,99357.78
2023-05-21T23:07:47.742Z,99352.63
2023-05-21T23:10:14.657Z,99359.50
2023-05-21T23:12:41.401Z,99357.81
2023-05-21T23:15:09.721Z,99349.19
2023-05-21T23:17:37.310Z,99346.59
2023-05-21T23:20:04.832Z,99345.72
2023-05-21T23:22:32.120Z,99346.59
2023-05-21T23:24:58.725Z,99356.94
2023-05-21T23:27:25.312Z,99353.50
2023-05-21T23:29:51.906Z,99355.25
2023-05-21T23:32:18.562Z,99348.34
2023-05-21T23:34:45.231Z,99345.75
2023-05-21T23:37:12.196Z,99343.19
2023-05-21T23:39:38.869Z,99322.47
2023-05-21T23:42:06.150Z,99321.63
2023-05-21T23:44:33.526Z,99313.84
2023-05-21T23:47:00.107Z,99306.09
2023-05-21T23:49:26.736Z,99308.69
2023-05-21T23:51:53.520Z,99308.69
2023-05-21T23:54:20.234Z,99301.81
2023-05-21T23:56:46.888Z,99296.63
2023-05-21T23:59:13.952Z,99290.56
